Airfield :







YOU CAN JOIN US ON...

 
LOGIN :

Register | Disclaimer

   EN    FR    IT 

 









Legend :    VFR   Marginal VFR   IFR   Intensive IFR   Very Intensive IFR
Visi :
Ceiling :
>= 8 km
>= 3000ft
5 to 8 km
1000 to 3000 ft
1500m to 5 km
500 to 1000 ft
800 to 1500m
200 to 500 ft
< 800m
< 200 ft
Symbols :   Thunderstorms  Fog  Heavy snow  Heavy precipitations  Wind > 20 kt






- Airport Elevation : 335 ft
- IATA code : BTV


KBTV - Burlington International

CURRENT METAR :
  • 090754Z AUTO 25005KT 10SM BKN043 BKN050 OVC090 24/22 A2974 RMK AO2 SLP069 T02390222

EXPIRED METARs :
  • 090654Z AUTO 22009KT 10SM OVC045 24/22 A2973 RMK AO2 SLP066 T02440222
  • 090554Z AUTO 19010KT 10SM BKN045 OVC050 24/22 A2973 RMK AO2 SLP064 60005 T02440222 10244 20217 58015

TAF KBTV
Valid from the 09 at 06:00 until the 10 at 06:00 UTC


090539Z 0906/1006 19008KT P6SM VCSH OVC040
FM090800 24007KT P6SM VCSH OVC035
FM091000 28005KT 4SM -SHRA BR OVC007
FM091200 36008KT P6SM VCSH OVC012
FM100400 VRB04KT P6SM BKN020
KZBW FIR / North America



MET'MAP, your aeronautical weather chart ! - Copyright ORBIFLY December 2007 - Disclaimer

ORBIFLY MET'MAP TEAM :

Programming & Development : Alexandra Zaïnal
Original concept : Baudouin d'Aumeries
Technical & hardware support : Manuel Goepfert
Assistance : Marc-Olivier Méhu




SOURCES & CREDITS :

   NOAA